Time;durP1;ratioP1;P1;durP2;ratioP2;P2;SDS_P1;SDS_P2;PMS_P1;PMS_P2;Temp;Humidity;BMP_temperature;BMP_pressure;BME280_temperature;BME280_humidity;BME280_pressure;Samples;Min_cycle;Max_cycle;Signal;HPM_P1;HPM_P2
2021/11/27 00:01:19;;;;;;;2.80;2.43;;;;;;;-140.05;100.00;61859.38;4876632;29;20467;-68
2021/11/27 00:03:47;;;;;;;3.33;2.50;;;;;;;-140.05;100.00;61859.38;4876505;29;20508;-67
2021/11/27 00:06:14;;;;;;;2.70;2.43;;;;;;;-140.05;100.00;61859.38;4876382;29;20451;-65
2021/11/27 00:08:41;;;;;;;4.37;2.63;;;;;;;-140.05;100.00;61859.38;4876202;29;20582;-67
2021/11/27 00:11:08;;;;;;;3.83;2.80;;;;;;;-140.05;100.00;61859.38;4876483;29;20810;-66
2021/11/27 00:13:35;;;;;;;3.30;2.40;;;;;;;-140.05;100.00;61859.38;4875061;29;21345;-66
2021/11/27 00:16:02;;;;;;;3.73;2.73;;;;;;;-140.05;100.00;61859.38;4876395;29;20443;-66
2021/11/27 00:18:32;;;;;;;3.23;2.60;;;;;;;-140.05;100.00;61859.38;4876276;29;20533;-66
2021/11/27 00:21:06;;;;;;;4.47;3.20;;;;;;;-140.05;100.00;61859.38;4875042;29;20588;-67
2021/11/27 00:23:36;;;;;;;3.83;2.87;;;;;;;-140.05;100.00;61859.38;4873568;29;20442;-67
2021/11/27 00:26:07;;;;;;;2.20;1.70;;;;;;;-140.05;100.00;61859.38;4874757;29;20436;-67
2021/11/27 00:28:35;;;;;;;3.00;2.47;;;;;;;-140.05;100.00;61859.38;4875519;29;20439;-68
2021/11/27 00:31:08;;;;;;;3.17;2.60;;;;;;;-140.05;100.00;61859.38;4875206;29;20459;-69
2021/11/27 00:33:37;;;;;;;4.13;2.33;;;;;;;-140.05;100.00;61859.38;4874797;29;20439;-69
2021/11/27 00:36:05;;;;;;;3.60;2.07;;;;;;;-140.05;100.00;61859.38;4890391;29;20474;-70
2021/11/27 00:38:32;;;;;;;7.57;2.83;;;;;;;-140.05;100.00;61859.38;4875165;29;20447;-68
2021/11/27 00:41:00;;;;;;;3.03;2.20;;;;;;;-140.05;100.00;61859.38;4874280;29;20467;-67
2021/11/27 00:43:28;;;;;;;3.33;1.90;;;;;;;-140.05;100.00;61859.38;4886267;29;20483;-67
2021/11/27 00:45:55;;;;;;;7.23;2.20;;;;;;;-140.05;100.00;61859.38;4874602;29;20453;-68
2021/11/27 00:48:24;;;;;;;3.10;2.20;;;;;;;-140.05;100.00;61859.38;4874688;29;20439;-67
2021/11/27 00:50:59;;;;;;;4.80;2.17;;;;;;;-140.05;100.00;61859.38;4875326;29;20443;-67
2021/11/27 00:53:27;;;;;;;2.80;2.23;;;;;;;-140.05;100.00;61859.38;4860482;29;20868;-67
2021/11/27 00:55:54;;;;;;;2.50;2.13;;;;;;;-140.05;100.00;61859.38;4904336;29;20491;-68
2021/11/27 00:58:22;;;;;;;4.63;2.40;;;;;;;-140.05;100.00;61859.38;4874325;29;20454;-68
2021/11/27 01:00:53;;;;;;;2.87;2.00;;;;;;;-140.05;100.00;61859.38;4875329;29;20478;-68
2021/11/27 01:03:25;;;;;;;4.73;2.60;;;;;;;-140.05;100.00;61859.38;4875322;29;20454;-67
2021/11/27 01:05:57;;;;;;;2.90;2.30;;;;;;;-140.05;100.00;61859.38;4877655;29;20885;-67
2021/11/27 01:08:26;;;;;;;3.13;2.40;;;;;;;-140.05;100.00;61859.38;4889525;29;20467;-68
2021/11/27 01:10:57;;;;;;;2.40;2.20;;;;;;;-140.05;100.00;61859.38;4889265;29;20435;-67
2021/11/27 01:13:25;;;;;;;3.60;2.60;;;;;;;-140.05;100.00;61859.38;4888362;29;20442;-66
2021/11/27 01:15:53;;;;;;;6.57;2.63;;;;;;;-140.05;100.00;61859.38;4875570;29;20443;-67
2021/11/27 01:18:20;;;;;;;2.67;2.30;;;;;;;-140.05;100.00;61859.38;4871380;29;21031;-68
2021/11/27 01:20:53;;;;;;;5.87;2.20;;;;;;;-140.05;100.00;61859.38;4855869;29;20885;-70
2021/11/27 01:23:22;;;;;;;3.70;2.23;;;;;;;-140.05;100.00;61859.38;4856266;29;20499;-68
2021/11/27 01:25:49;;;;;;;3.60;1.87;;;;;;;-140.05;100.00;61859.38;4860346;29;20459;-67
2021/11/27 01:28:18;;;;;;;4.03;2.17;;;;;;;-140.05;100.00;61859.38;4859747;29;20558;-65
2021/11/27 01:30:50;;;;;;;3.03;2.13;;;;;;;-140.05;100.00;61859.38;4864486;29;20550;-69
2021/11/27 01:33:18;;;;;;;3.60;2.07;;;;;;;-140.05;100.00;61859.38;4863461;29;21149;-68
2021/11/27 01:35:46;;;;;;;2.73;2.20;;;;;;;-140.05;100.00;61859.38;4877733;29;20436;-69
2021/11/27 01:38:13;;;;;;;5.10;1.73;;;;;;;-140.05;100.00;61859.38;4887006;29;20467;-67
2021/11/27 01:40:41;;;;;;;4.60;2.43;;;;;;;-140.05;100.00;61859.38;4859517;29;20864;-68
2021/11/27 01:43:09;;;;;;;3.43;2.37;;;;;;;-140.05;100.00;61859.38;4860272;29;20447;-66
2021/11/27 01:45:36;;;;;;;2.50;1.93;;;;;;;-140.05;100.00;61859.38;4860574;29;20462;-66
2021/11/27 01:48:10;;;;;;;3.77;2.30;;;;;;;-140.05;100.00;61859.38;4858750;29;20439;-68
2021/11/27 01:50:44;;;;;;;4.20;2.33;;;;;;;-140.05;100.00;61859.38;4879026;29;20531;-68
2021/11/27 01:53:13;;;;;;;2.67;2.30;;;;;;;-140.05;100.00;61859.38;4897222;29;20684;-67
2021/11/27 01:55:40;;;;;;;4.53;2.47;;;;;;;-140.05;100.00;61859.38;4867408;29;20449;-66
2021/11/27 01:58:08;;;;;;;1.57;1.40;;;;;;;-140.05;100.00;61859.38;4891626;29;20538;-67
2021/11/27 02:00:41;;;;;;;3.90;1.80;;;;;;;-140.05;100.00;61859.38;4909238;29;20563;-70
2021/11/27 02:03:09;;;;;;;4.83;1.90;;;;;;;-140.05;100.00;61859.38;4888372;29;20447;-69
2021/11/27 02:05:56;;;;;;;5.13;1.90;;;;;;;-140.05;100.00;61859.38;4866575;29;20443;-69
2021/11/27 02:08:26;;;;;;;2.70;2.10;;;;;;;-140.05;100.00;61859.38;4881841;29;20531;-68
2021/11/27 02:10:54;;;;;;;4.07;2.43;;;;;;;-140.05;100.00;61859.38;4884333;29;20455;-68
2021/11/27 02:13:22;;;;;;;7.10;3.50;;;;;;;-140.05;100.00;61859.38;4883440;29;20962;-69
2021/11/27 02:15:50;;;;;;;4.93;3.33;;;;;;;-140.05;100.00;61859.38;4886286;29;20443;-68
2021/11/27 02:18:19;;;;;;;4.03;3.30;;;;;;;-140.05;100.00;61859.38;4869345;29;20506;-70
2021/11/27 02:21:07;;;;;;;4.27;2.90;;;;;;;-140.05;100.00;61859.38;4897073;29;20474;-68
2021/11/27 02:23:36;;;;;;;4.17;2.40;;;;;;;-140.05;100.00;61859.38;4884003;29;20817;-67
2021/11/27 02:26:06;;;;;;;2.73;2.20;;;;;;;-140.05;100.00;61859.38;4877278;29;20459;-69
2021/11/27 02:28:40;;;;;;;2.07;1.53;;;;;;;-140.05;100.00;61859.38;4892042;29;20451;-66
2021/11/27 02:31:08;;;;;;;3.60;1.40;;;;;;;-140.05;100.00;61859.38;4897890;29;20475;-66
2021/11/27 02:33:35;;;;;;;3.40;1.50;;;;;;;-140.05;100.00;61859.38;4865826;29;21109;-67
2021/11/27 02:36:03;;;;;;;3.67;1.87;;;;;;;-140.05;100.00;61859.38;4867582;29;20467;-68
2021/11/27 02:38:31;;;;;;;2.77;1.90;;;;;;;-140.05;100.00;61859.38;4867849;29;20442;-69
2021/11/27 02:40:58;;;;;;;3.63;1.90;;;;;;;-140.05;100.00;61859.38;4876375;29;20506;-69
2021/11/27 02:43:26;;;;;;;2.67;1.67;;;;;;;-140.05;100.00;61859.38;4876674;29;20435;-67
2021/11/27 02:45:54;;;;;;;3.30;1.70;;;;;;;-140.05;100.00;61859.38;4892821;29;20461;-67
2021/11/27 02:48:22;;;;;;;2.80;1.63;;;;;;;-140.05;100.00;61859.38;4870516;29;21098;-68
2021/11/27 02:50:50;;;;;;;1.13;0.80;;;;;;;-140.05;100.00;61859.38;4865215;29;20444;-70
2021/11/27 02:53:17;;;;;;;1.57;1.00;;;;;;;-140.05;100.00;61859.38;4867057;29;20443;-67
2021/11/27 02:55:45;;;;;;;1.67;1.10;;;;;;;-140.05;100.00;61859.38;4872053;29;20829;-68
2021/11/27 02:58:13;;;;;;;2.03;1.50;;;;;;;-140.05;100.00;61859.38;4866813;29;20454;-67
2021/11/27 03:00:43;;;;;;;1.30;1.10;;;;;;;-140.05;100.00;61859.38;4896351;29;20490;-67
2021/11/27 03:03:12;;;;;;;1.43;1.13;;;;;;;-140.05;100.00;61859.38;4885073;29;20495;-68
2021/11/27 03:05:40;;;;;;;3.37;1.70;;;;;;;-140.05;100.00;61859.38;4891577;29;20871;-67
2021/11/27 03:08:07;;;;;;;2.23;1.63;;;;;;;-140.05;100.00;61859.38;4891831;29;20447;-66
2021/11/27 03:10:34;;;;;;;3.00;1.57;;;;;;;-140.05;100.00;61859.38;4892136;29;20474;-66
2021/11/27 03:13:01;;;;;;;2.03;1.33;;;;;;;-140.05;100.00;61859.38;4877438;29;20546;-68
2021/11/27 03:15:29;;;;;;;4.13;1.60;;;;;;;-140.05;100.00;61859.38;4891969;29;20454;-68
2021/11/27 03:17:56;;;;;;;3.90;1.90;;;;;;;-140.05;100.00;61859.38;4889756;29;20454;-70
2021/11/27 03:20:23;;;;;;;4.27;1.70;;;;;;;-140.05;100.00;61859.38;4894271;29;21022;-68
2021/11/27 03:22:50;;;;;;;1.87;1.30;;;;;;;-140.05;100.00;61859.38;4866027;29;20466;-68
2021/11/27 03:25:18;;;;;;;2.73;1.50;;;;;;;-140.05;100.00;61859.38;4871655;29;20860;-67
2021/11/27 03:27:46;;;;;;;2.90;1.40;;;;;;;-140.05;100.00;61859.38;4890790;29;20443;-68
2021/11/27 03:30:18;;;;;;;1.30;1.20;;;;;;;-140.05;100.00;61859.38;4891750;29;20454;-66
2021/11/27 03:32:51;;;;;;;3.07;1.20;;;;;;;-140.05;100.00;61859.38;4891743;29;20442;-67
2021/11/27 03:35:22;;;;;;;2.90;1.20;;;;;;;-140.05;100.00;61859.38;4888376;29;20451;-68
2021/11/27 03:37:51;;;;;;;1.73;1.13;;;;;;;-140.05;100.00;61859.38;4866759;29;20444;-69
2021/11/27 03:40:24;;;;;;;1.83;1.20;;;;;;;-140.05;100.00;61859.38;4847735;29;20495;-66
2021/11/27 03:42:54;;;;;;;2.30;1.23;;;;;;;-140.05;100.00;61859.38;4880845;29;20918;-69
2021/11/27 03:45:23;;;;;;;7.93;1.77;;;;;;;-140.05;100.00;61859.38;4891616;29;20478;-67
2021/11/27 03:48:10;;;;;;;10.13;2.17;;;;;;;-140.05;100.00;61859.38;4875752;29;20851;-68
2021/11/27 03:50:59;;;;;;;3.27;1.50;;;;;;;-140.05;100.00;61859.38;4866258;29;20473;-69
2021/11/27 03:53:31;;;;;;;5.77;1.50;;;;;;;-140.05;100.00;61859.38;4864969;29;21160;-69
2021/11/27 03:56:03;;;;;;;3.53;1.50;;;;;;;-140.05;100.00;61859.38;4866686;29;20447;-69
2021/11/27 03:58:31;;;;;;;3.37;1.40;;;;;;;-140.05;100.00;61859.38;4882779;29;20455;-68
2021/11/27 04:00:59;;;;;;;1.90;1.67;;;;;;;-140.05;100.00;61859.38;4907208;29;20937;-69
2021/11/27 04:03:28;;;;;;;3.00;1.50;;;;;;;-140.05;100.00;61859.38;4891044;29;20442;-67
2021/11/27 04:05:58;;;;;;;3.27;1.77;;;;;;;-140.05;100.00;61859.38;4891230;29;20490;-68
2021/11/27 04:08:36;;;;;;;6.03;1.90;;;;;;;;;;5066393;28;20881;-70
2021/11/27 04:11:04;;;;;;;1.60;1.50;;;;;;;;;;5065406;28;20855;-71
2021/11/27 04:13:32;;;;;;;4.07;1.60;;;;;;;;;;5065113;28;20500;-67
2021/11/27 04:15:59;;;;;;;2.07;1.60;;;;;;;;;;5065780;28;20962;-68
2021/11/27 04:18:27;;;;;;;2.73;1.37;;;;;;;;;;5064604;28;20445;-67
2021/11/27 04:20:54;;;;;;;0.70;0.60;;;;;;;;;;5064917;28;20461;-72
2021/11/27 04:23:21;;;;;;;2.17;1.10;;;;;;;;;;5064680;28;20476;-68
2021/11/27 04:25:50;;;;;;;10.37;1.10;;;;;;;;;;5065031;28;20454;-69
2021/11/27 04:28:17;;;;;;;1.67;1.10;;;;;;;;;;5064571;28;20551;-69
2021/11/27 04:30:45;;;;;;;1.17;0.87;;;;;;;;;;5065025;28;20446;-70
2021/11/27 04:33:12;;;;;;;3.80;0.63;;;;;;;;;;5064482;28;20453;-66
2021/11/27 04:35:51;;;;;;;3.47;0.83;;;;;;;;;;5066618;28;20505;-69
2021/11/27 04:38:22;;;;;;;3.00;0.97;;;;;;;;;;5064425;28;20450;-67
2021/11/27 04:40:49;;;;;;;1.80;0.80;;;;;;;;;;5064711;28;20541;-66
2021/11/27 04:43:17;;;;;;;1.83;0.97;;;;;;;;;;5064264;28;20433;-69
2021/11/27 04:45:45;;;;;;;2.03;0.90;;;;;;;;;;5064802;28;20438;-68
2021/11/27 04:48:14;;;;;;;2.27;1.00;;;;;;;;;;5064038;28;21040;-68
2021/11/27 04:50:44;;;;;;;3.30;1.40;;;;;;;;;;5064524;28;20454;-69
2021/11/27 04:53:12;;;;;;;2.13;0.83;;;;;;;;;;5065621;28;20994;-67
2021/11/27 04:55:41;;;;;;;1.83;0.90;;;;;;;;;;5064228;28;20458;-67
2021/11/27 04:58:12;;;;;;;2.93;1.00;;;;;;;;;;5064001;28;20434;-67
2021/11/27 05:00:42;;;;;;;7.23;1.30;;;;;;;;;;5064176;28;20453;-68
2021/11/27 05:03:13;;;;;;;6.23;1.50;;;;;;;;;;5064044;28;20480;-68
2021/11/27 05:05:40;;;;;;;2.63;1.80;;;;;;;;;;5065818;28;20425;-68
2021/11/27 05:08:07;;;;;;;6.27;1.57;;;;;;;;;;5063460;28;21039;-67
2021/11/27 05:10:35;;;;;;;1.70;1.30;;;;;;;;;;5064493;28;20434;-69
2021/11/27 05:13:03;;;;;;;5.67;2.00;;;;;;;;;;5064051;28;20814;-70
2021/11/27 05:15:32;;;;;;;5.30;2.73;;;;;;;;;;5064552;28;20438;-71
2021/11/27 05:18:02;;;;;;;4.27;1.80;;;;;;;;;;5060967;28;20669;-70
2021/11/27 05:20:52;;;;;;;3.23;1.40;;;;;;;;;;5050776;28;20442;-67
2021/11/27 05:23:18;;;;;;;1.27;0.90;;;;;;;;;;5050643;28;21286;-67
2021/11/27 05:25:45;;;;;;;2.40;1.07;;;;;;;;;;5051072;28;20431;-70
2021/11/27 05:28:31;;;;;;;1.47;1.13;;;;;;;;;;5051683;28;20485;-66
2021/11/27 05:31:19;;;;;;;1.53;1.30;;;;;;;;;;5040502;28;20435;-69
2021/11/27 05:36:26;;;;;;;5.73;1.30;;;;;;;;;;5050699;28;20980;-68
2021/11/27 05:38:53;;;;;;;4.47;1.63;;;;;;;;;;5051574;28;20534;-70
2021/11/27 05:41:22;;;;;;;2.70;1.20;;;;;;;;;;5047359;28;20467;-69
2021/11/27 05:43:51;;;;;;;6.33;1.37;;;;;;;;;;5049219;28;20434;-68
2021/11/27 05:46:18;;;;;;;5.10;1.60;;;;;;;;;;5050403;28;20988;-71
2021/11/27 05:48:45;;;;;;;1.70;1.10;;;;;;;;;;5033266;28;20486;-69
2021/11/27 05:51:34;;;;;;;4.27;2.30;;;;;;;;;;5031530;28;20443;-71
2021/11/27 05:54:01;;;;;;;6.80;2.60;;;;;;;;;;5031244;28;20440;-70
2021/11/27 05:56:28;;;;;;;6.97;2.90;;;;;;;;;;5032077;28;20504;-71
2021/11/27 05:58:56;;;;;;;7.20;3.10;;;;;;;;;;5031799;28;20823;-70
2021/11/27 06:01:23;;;;;;;4.93;3.27;;;;;;;;;;5032318;28;20467;-71
2021/11/27 06:03:50;;;;;;;5.50;2.83;;;;;;;;;;5031606;28;20482;-72
2021/11/27 06:06:17;;;;;;;5.97;2.50;;;;;;;;;;5033200;28;20946;-70
2021/11/27 06:08:44;;;;;;;3.47;2.50;;;;;;;;;;5031639;28;20483;-70
2021/11/27 06:11:11;;;;;;;2.30;1.60;;;;;;;;;;5032007;28;20455;-69
2021/11/27 06:13:38;;;;;;;4.30;1.30;;;;;;;;;;5030765;28;20964;-69
2021/11/27 06:16:07;;;;;;;4.67;1.50;;;;;;;;;;5031057;28;20438;-67
2021/11/27 06:18:35;;;;;;;2.83;1.37;;;;;;;;;;5031141;28;20440;-68
2021/11/27 06:21:02;;;;;;;4.03;2.03;;;;;;;;;;5031234;28;20420;-68
2021/11/27 06:23:30;;;;;;;5.13;2.10;;;;;;;;;;5030732;28;20459;-68
2021/11/27 06:25:56;;;;;;;4.80;2.30;;;;;;;;;;5030791;28;20447;-68
2021/11/27 06:28:23;;;;;;;2.73;1.30;;;;;;;;;;5029092;28;20492;-69
2021/11/27 06:30:50;;;;;;;3.13;1.00;;;;;;;;;;5029653;28;20447;-69
2021/11/27 06:33:17;;;;;;;1.30;1.17;;;;;;;;;;5030706;28;21013;-68
2021/11/27 06:35:44;;;;;;;2.23;1.00;;;;;;;;;;5030415;28;20452;-67
2021/11/27 06:38:11;;;;;;;1.37;1.07;;;;;;;;;;5029562;28;20451;-69
2021/11/27 06:40:39;;;;;;;4.60;1.20;;;;;;;;;;5029476;28;20433;-69
2021/11/27 06:43:33;;;;;;;1.87;0.90;;;;;;;;;;5029759;28;20428;-68
2021/11/27 06:46:07;;;;;;;3.20;1.37;;;;;;;;;;5029159;28;20478;-68
2021/11/27 06:48:35;;;;;;;2.90;1.17;;;;;;;;;;5030129;28;20513;-67
2021/11/27 06:51:02;;;;;;;4.50;1.67;;;;;;;;;;5029199;28;20436;-68
2021/11/27 06:53:30;;;;;;;3.10;1.50;;;;;;;;;;5029791;28;20432;-68
2021/11/27 06:55:57;;;;;;;4.80;1.90;;;;;;;;;;5029801;28;20447;-68
2021/11/27 06:58:25;;;;;;;4.33;1.70;;;;;;;;;;5027881;28;20565;-68
2021/11/27 07:01:18;;;;;;;3.70;1.40;;;;;;;;;;5028686;28;20841;-68
2021/11/27 07:04:04;;;;;;;4.17;2.40;;;;;;;;;;5030127;28;20444;-67
2021/11/27 07:06:46;;;;;;;11.77;8.13;;;;;;;;;;5029184;28;20533;-67
2021/11/27 07:09:14;;;;;;;2.10;1.50;;;;;;;;;;5028166;28;20491;-69
2021/11/27 07:12:04;;;;;;;7.87;3.90;;;;;;;;;;5028189;28;21153;-68
2021/11/27 07:14:31;;;;;;;9.83;5.53;;;;;;;;;;5028515;28;20454;-68
2021/11/27 07:16:58;;;;;;;2.43;1.10;;;;;;;;;;5029248;28;20518;-67
2021/11/27 07:19:24;;;;;;;5.40;2.40;;;;;;;;;;5030101;28;20442;-68
2021/11/27 07:21:51;;;;;;;5.93;1.77;;;;;;;;;;5028739;28;20435;-67
2021/11/27 07:24:19;;;;;;;4.30;1.40;;;;;;;;;;5029822;28;20443;-67
2021/11/27 07:26:46;;;;;;;2.80;1.10;;;;;;;;;;5029332;28;20446;-68
2021/11/27 07:29:13;;;;;;;3.23;1.27;;;;;;;;;;5029804;28;20874;-68
2021/11/27 07:31:45;;;;;;;5.57;1.30;;;;;;;;;;5031479;28;20439;-67
2021/11/27 07:34:12;;;;;;;12.27;1.60;;;;;;;;;;5039866;28;20462;-66
2021/11/27 07:36:39;;;;;;;9.57;2.23;;;;;;;;;;5028341;28;20472;-67
2021/11/27 07:39:08;;;;;;;8.53;2.03;;;;;;;;;;5029271;28;20435;-66
2021/11/27 07:41:35;;;;;;;9.83;2.27;;;;;;;;;;5034153;28;20438;-67
2021/11/27 07:44:08;;;;;;;5.90;2.03;;;;;;;;;;5032064;28;20686;-69
2021/11/27 07:47:13;;;;;;;8.43;1.57;;;;;;;;;;5034040;28;20439;-67
2021/11/27 07:50:09;;;;;;;5.50;1.47;;;;;;;;;;5020970;28;20436;-68
2021/11/27 07:52:39;;;;;;;3.53;1.43;;;;;;;;;;5032243;28;20989;-67
2021/11/27 07:55:06;;;;;;;5.30;1.40;;;;;;;;;;5026421;28;20829;-69
2021/11/27 07:57:33;;;;;;;5.63;1.67;;;;;;;;;;5028333;28;20531;-67
2021/11/27 07:59:59;;;;;;;4.23;1.60;;;;;;;;;;5030025;28;20477;-67
2021/11/27 08:02:27;;;;;;;6.90;1.87;;;;;;;;;;5029302;28;20542;-66
2021/11/27 08:04:54;;;;;;;6.87;2.03;;;;;;;;;;5026028;28;20469;-69
2021/11/27 08:07:20;;;;;;;2.90;1.80;;;;;;;;;;5020291;28;20478;-68
2021/11/27 08:09:47;;;;;;;9.70;2.63;;;;;;;;;;5026843;28;20535;-66
2021/11/27 08:12:14;;;;;;;5.03;2.10;;;;;;;;;;5026696;28;20479;-65
2021/11/27 08:14:41;;;;;;;36.63;16.70;;;;;;;;;;5025795;28;20478;-64
2021/11/27 08:17:09;;;;;;;199.73;153.10;;;;;;;;;;5027946;28;20452;-70
2021/11/27 08:19:35;;;;;;;183.93;163.77;;;;;;;;;;5030303;28;20447;-68
2021/11/27 08:22:02;;;;;;;2.27;1.63;;;;;;;;;;5029444;28;20884;-69
2021/11/27 08:24:30;;;;;;;10.00;4.80;;;;;;;;;;5033062;28;20448;-67
2021/11/27 08:26:59;;;;;;;59.37;41.27;;;;;;;;;;5026568;28;20447;-66
2021/11/27 08:29:26;;;;;;;6.63;3.57;;;;;;;;;;5028163;28;21001;-66
2021/11/27 08:31:52;;;;;;;6.07;3.40;;;;;;;;;;5029983;28;20447;-70
2021/11/27 08:34:19;;;;;;;6.90;2.60;;;;;;;;;;5028417;28;20462;-69
2021/11/27 08:36:46;;;;;;;5.60;2.30;;;;;;;;;;5059649;28;20456;-67
2021/11/27 08:39:13;;;;;;;4.67;1.90;;;;;;;;;;5027042;28;20455;-66
2021/11/27 08:41:40;;;;;;;5.13;2.20;;;;;;;;;;5027139;28;20531;-64
2021/11/27 08:44:06;;;;;;;140.13;116.27;;;;;;;;;;5028550;28;20958;-68
2021/11/27 08:46:33;;;;;;;138.37;103.70;;;;;;;;;;5027274;28;20819;-69
2021/11/27 08:49:00;;;;;;;11.20;6.83;;;;;;;;;;5029211;28;20533;-68
2021/11/27 08:51:32;;;;;;;3.50;2.20;;;;;;;;;;5029835;28;20452;-66
2021/11/27 08:53:58;;;;;;;3.53;2.10;;;;;;;;;;5032967;28;20444;-64
2021/11/27 08:56:25;;;;;;;6.20;1.80;;;;;;;;;;5039516;28;20450;-64
2021/11/27 08:58:52;;;;;;;5.00;1.67;;;;;;;;;;5043636;28;20447;-60
2021/11/27 09:01:19;;;;;;;2.77;1.30;;;;;;;;;;5036335;28;20444;-64
2021/11/27 09:03:46;;;;;;;3.80;1.53;;;;;;;;;;5034374;28;20860;-66
2021/11/27 09:06:14;;;;;;;3.07;1.30;;;;;;;;;;5030924;28;20446;-65
2021/11/27 09:08:42;;;;;;;4.00;1.70;;;;;;;;;;5030644;28;20494;-61
2021/11/27 09:11:10;;;;;;;3.93;2.47;;;;;;;;;;5031588;28;20494;-68
2021/11/27 09:13:37;;;;;;;2.80;1.70;;;;;;;;;;5031278;28;20439;-63
2021/11/27 09:16:04;;;;;;;4.17;2.00;;;;;;;;;;5031786;28;20509;-64
2021/11/27 09:18:51;;;;;;;2.37;1.33;;;;;;;;;;5030868;28;21131;-63
2021/11/27 09:21:18;;;;;;;2.70;1.20;;;;;;;;;;5031700;28;20525;-65
2021/11/27 09:23:45;;;;;;;2.03;1.13;;;;;;;;;;5032127;28;20451;-64
2021/11/27 09:26:12;;;;;;;1.17;0.80;;;;;;;;;;5032079;28;20443;-62
2021/11/27 09:28:39;;;;;;;2.87;1.10;;;;;;;;;;5025266;28;20495;-65
2021/11/27 09:31:06;;;;;;;2.37;1.20;;;;;;;;;;5027708;28;20436;-64
2021/11/27 09:33:33;;;;;;;5.07;1.40;;;;;;;;;;5031791;28;20436;-67
2021/11/27 09:36:05;;;;;;;7.47;1.20;;;;;;;;;;5020207;28;20965;-69
2021/11/27 09:38:33;;;;;;;4.87;1.43;;;;;;;;;;5014432;28;20455;-65
2021/11/27 09:41:09;;;;;;;2.10;1.13;;;;;;;;;;5023884;28;20444;-64
2021/11/27 09:43:36;;;;;;;4.20;1.30;;;;;;;;;;5031320;28;20436;-62
2021/11/27 09:46:05;;;;;;;3.23;1.70;;;;;;;;;;5031857;28;20440;-64
2021/11/27 09:48:32;;;;;;;7.07;3.00;;;;;;;;;;5030506;28;20483;-66
2021/11/27 09:50:59;;;;;;;6.03;2.30;;;;;;;;;;5040176;28;21002;-66
2021/11/27 09:53:26;;;;;;;10.67;2.40;;;;;;;;;;5031229;28;20446;-69
2021/11/27 09:55:53;;;;;;;8.83;3.10;;;;;;;;;;5031464;28;20438;-66
2021/11/27 09:58:21;;;;;;;3.77;1.30;;;;;;;;;;5031523;28;20432;-67
2021/11/27 10:00:48;;;;;;;4.00;1.80;;;;;;;;;;5031916;28;20448;-63
2021/11/27 10:03:16;;;;;;;13.27;4.10;;;;;;;;;;5031873;28;20446;-63
2021/11/27 10:05:45;;;;;;;8.13;3.57;;;;;;;;;;5039882;28;20482;-65
2021/11/27 10:08:13;;;;;;;10.47;3.30;;;;;;;;;;5031263;28;20545;-62
2021/11/27 10:10:40;;;;;;;8.07;2.83;;;;;;;;;;5030824;28;20444;-69
2021/11/27 10:13:07;;;;;;;14.87;2.80;;;;;;;;;;5030727;28;20471;-63
2021/11/27 10:15:34;;;;;;;3.50;1.73;;;;;;;;;;5031153;28;20458;-68
2021/11/27 10:18:12;;;;;;;3.33;0.90;;;;;;;;;;5030635;28;20523;-71
2021/11/27 10:20:39;;;;;;;3.67;1.27;;;;;;;;;;5030587;28;21101;-65
2021/11/27 10:23:06;;;;;;;3.10;1.20;;;;;;;;;;5030122;28;20826;-66
2021/11/27 10:25:34;;;;;;;5.00;1.40;;;;;;;;;;5030392;28;20554;-62
2021/11/27 10:28:03;;;;;;;3.33;1.30;;;;;;;;;;5030040;28;20448;-66
2021/11/27 10:30:41;;;;;;;1.90;1.13;;;;;;;;;;5035025;28;20432;-68
2021/11/27 10:33:08;;;;;;;3.90;1.10;;;;;;;;;;5031906;28;20833;-66
2021/11/27 10:35:35;;;;;;;6.83;1.77;;;;;;;;;;5030489;28;20444;-72
2021/11/27 10:38:05;;;;;;;3.83;2.10;;;;;;;;;;5039852;28;20936;-67
2021/11/27 10:40:33;;;;;;;1.87;1.20;;;;;;;;;;5029390;28;20444;-69
2021/11/27 10:43:05;;;;;;;2.60;1.13;;;;;;;;;;5030070;28;20439;-66
2021/11/27 10:45:33;;;;;;;4.10;1.47;;;;;;;;;;5030655;28;20472;-67
2021/11/27 10:48:09;;;;;;;4.03;1.40;;;;;;;;;;5029512;28;20453;-64
2021/11/27 10:50:40;;;;;;;5.27;1.27;;;;;;;;;;5030123;28;20448;-69
2021/11/27 10:53:10;;;;;;;2.07;1.47;;;;;;;;;;5029814;28;20442;-66
2021/11/27 10:55:39;;;;;;;3.67;1.80;;;;;;;;;;5031295;28;20452;-70
2021/11/27 10:58:07;;;;;;;5.90;2.00;;;;;;;;;;5030051;28;21008;-67
2021/11/27 11:00:35;;;;;;;3.17;1.33;;;;;;;;;;5037538;28;20516;-65
2021/11/27 11:03:04;;;;;;;4.97;1.17;;;;;;;;;;5036689;28;20440;-71
2021/11/27 11:05:35;;;;;;;2.53;1.20;;;;;;;;;;5028364;28;20449;-65
2021/11/27 11:08:03;;;;;;;4.73;1.10;;;;;;;;;;5029444;28;20467;-62
2021/11/27 11:10:32;;;;;;;3.97;1.50;;;;;;;;;;5029965;28;20444;-65
2021/11/27 11:13:05;;;;;;;4.77;1.27;;;;;;;;;;5030303;28;20509;-69
2021/11/27 11:15:37;;;;;;;6.37;1.27;;;;;;;;;;5029987;28;20476;-62
2021/11/27 11:18:25;;;;;;;5.70;1.50;;;;;;;;;;5029598;28;20977;-68
2021/11/27 11:20:52;;;;;;;4.77;1.40;;;;;;;;;;5036699;28;20902;-67
2021/11/27 11:23:21;;;;;;;2.80;1.40;;;;;;;;;;5042593;28;21047;-61
2021/11/27 11:26:03;;;;;;;4.47;1.70;;;;;;;;;;5034375;28;20443;-65
2021/11/27 11:28:34;;;;;;;1.20;0.90;;;;;;;;;;5029132;28;20569;-67
2021/11/27 11:31:04;;;;;;;1.43;0.93;;;;;;;;;;5030058;28;20531;-64
2021/11/27 11:33:34;;;;;;;5.07;1.27;;;;;;;;;;5029301;28;20444;-66
2021/11/27 11:36:02;;;;;;;3.43;0.90;;;;;;;;;;5029831;28;20440;-66
2021/11/27 11:38:30;;;;;;;0.90;0.70;;;;;;;;;;5032596;28;20447;-65
2021/11/27 11:40:57;;;;;;;1.30;0.83;;;;;;;;;;5039617;28;20473;-66
2021/11/27 11:43:24;;;;;;;0.83;0.70;;;;;;;;;;5029853;28;20448;-67
2021/11/27 11:45:50;;;;;;;4.40;0.90;;;;;;;;;;5029083;28;20458;-62
2021/11/27 11:48:18;;;;;;;2.63;0.90;;;;;;;;;;5028680;28;20436;-66
2021/11/27 11:50:47;;;;;;;2.63;1.27;;;;;;;;;;5029421;28;20448;-67
2021/11/27 11:53:32;;;;;;;4.50;1.30;;;;;;;;;;5028763;28;21022;-65
2021/11/27 11:56:00;;;;;;;2.07;1.30;;;;;;;;;;5029033;28;20542;-61
2021/11/27 11:58:31;;;;;;;2.77;1.30;;;;;;;;;;5028789;28;20487;-67
2021/11/27 12:01:03;;;;;;;3.53;1.10;;;;;;;;;;5029018;28;20509;-65
2021/11/27 12:03:32;;;;;;;1.03;0.60;;;;;;;;;;5028345;28;20451;-62
2021/11/27 12:06:03;;;;;;;1.50;0.70;;;;;;;;;;5028801;28;20483;-68
2021/11/27 12:08:51;;;;;;;3.80;2.30;;;;;;;;;;5028188;28;20479;-68
2021/11/27 12:11:43;;;;;;;2.57;1.20;;;;;;;;;;5028937;28;20448;-69
2021/11/27 12:14:22;;;;;;;2.37;0.93;;;;;;;;;;5029822;28;20487;-69
2021/11/27 12:17:14;;;;;;;1.30;1.10;;;;;;;;;;5029253;28;20870;-66
2021/11/27 12:19:43;;;;;;;2.07;0.90;;;;;;;;;;5029174;28;20450;-66
2021/11/27 12:22:22;;;;;;;2.10;0.90;;;;;;;;;;5028812;28;20816;-63
2021/11/27 12:25:01;;;;;;;3.13;1.50;;;;;;;;;;5028502;28;20235;-68
2021/11/27 12:27:28;;;;;;;3.67;1.60;;;;;;;;;;5028529;28;20233;-63
2021/11/27 12:30:03;;;;;;;4.13;1.53;;;;;;;;;;5032220;28;20486;-67
2021/11/27 12:32:37;;;;;;;7.20;1.73;;;;;;;;;;5032347;28;20307;-65
2021/11/27 12:35:38;;;;;;;6.70;1.53;;;;;;;;;;5032807;28;20198;-67
2021/11/27 12:38:07;;;;;;;4.20;2.50;;;;;;;;;;5031094;28;20684;-67
2021/11/27 12:40:35;;;;;;;4.97;1.73;;;;;;;;;;5032899;28;20447;-65
2021/11/27 12:43:12;;;;;;;5.53;2.20;;;;;;;;;;5032070;28;20196;-65
2021/11/27 12:45:40;;;;;;;7.10;2.20;;;;;;;;;;5034187;28;20871;-66
2021/11/27 12:48:25;;;;;;;6.77;2.40;;;;;;;;;;5032605;28;20478;-65
2021/11/27 12:51:11;;;;;;;4.13;2.40;;;;;;;;;;5032633;28;20451;-70
2021/11/27 12:53:37;;;;;;;11.40;4.73;;;;;;;;;;5031729;28;20447;-62
2021/11/27 12:56:04;;;;;;;14.77;8.30;;;;;;;;;;5042925;28;20513;-70
2021/11/27 12:58:38;;;;;;;239.30;214.73;;;;;;;;;;5036603;28;20436;-67
2021/11/27 13:01:05;;;;;;;3.30;2.20;;;;;;;;;;5040849;28;20687;-68
2021/11/27 13:03:32;;;;;;;3.43;1.97;;;;;;;;;;5035864;28;20681;-66
2021/11/27 13:06:03;;;;;;;10.03;4.27;;;;;;;;;;5032712;28;20435;-65
2021/11/27 13:08:31;;;;;;;2.30;1.60;;;;;;;;;;5027303;28;20893;-67
2021/11/27 13:11:07;;;;;;;4.53;1.70;;;;;;;;;;5035751;28;20232;-68
2021/11/27 13:13:41;;;;;;;6.03;1.20;;;;;;;;;;5038648;28;20929;-66
2021/11/27 13:16:10;;;;;;;2.07;1.57;;;;;;;;;;5029737;28;20193;-66
2021/11/27 13:18:43;;;;;;;6.20;2.57;;;;;;;;;;5044184;28;20207;-62
2021/11/27 13:21:11;;;;;;;4.73;1.60;;;;;;;;;;5042326;28;20198;-68
2021/11/27 13:23:40;;;;;;;3.53;1.27;;;;;;;;;;5049604;28;20573;-67
2021/11/27 13:26:11;;;;;;;3.93;2.70;;;;;;;;;;5049275;28;20605;-64
2021/11/27 13:28:38;;;;;;;15.87;11.23;;;;;;;;;;5036468;28;20197;-63
2021/11/27 13:31:07;;;;;;;114.37;94.10;;;;;;;;;;5041367;28;20193;-63
2021/11/27 13:33:54;;;;;;;19.97;7.20;;;;;;;;;;5038794;28;20188;-66
2021/11/27 13:36:24;;;;;;;22.23;5.80;;;;;;;;;;5036852;28;20767;-66
2021/11/27 13:38:52;;;;;;;5.87;2.17;;;;;;;;;;5035213;28;20197;-61
2021/11/27 13:41:19;;;;;;;3.20;1.77;;;;;;;;;;5033325;28;20201;-69
2021/11/27 13:43:46;;;;;;;3.47;1.10;;;;;;;;;;5037905;28;20566;-65